createdAt,value
2022-07-25T00:00:00.345Z,99978
2022-07-25T00:01:00.395Z,99978
2022-07-25T00:02:00.554Z,99978
2022-07-25T00:03:00.500Z,99977
2022-07-25T00:04:00.443Z,99977
2022-07-25T00:05:00.517Z,99977
2022-07-25T00:06:00.279Z,99977
2022-07-25T00:07:00.414Z,99977
2022-07-25T00:08:00.263Z,99971
2022-07-25T00:09:00.830Z,99971
2022-07-25T00:10:00.264Z,99971
2022-07-25T00:11:00.265Z,99971
2022-07-25T00:12:00.472Z,99971
2022-07-25T00:13:00.307Z,99984
2022-07-25T00:14:00.428Z,99984
2022-07-25T00:15:00.273Z,99984
2022-07-25T00:16:00.361Z,99984
2022-07-25T00:17:00.307Z,99984
2022-07-25T00:18:00.323Z,99977
2022-07-25T00:19:00.282Z,99977
2022-07-25T00:20:00.681Z,99977
2022-07-25T00:21:00.290Z,99977
2022-07-25T00:22:00.279Z,99977
2022-07-25T00:23:00.279Z,99976
2022-07-25T00:24:00.348Z,99976
2022-07-25T00:25:00.437Z,99976
2022-07-25T00:26:00.390Z,99976
2022-07-25T00:27:00.298Z,99976
2022-07-25T00:28:00.252Z,99964
2022-07-25T00:29:00.302Z,99964
2022-07-25T00:30:00.436Z,99964
2022-07-25T00:31:00.408Z,99964
2022-07-25T00:32:00.390Z,99964
2022-07-25T00:33:00.266Z,99968
2022-07-25T00:34:00.338Z,99968
2022-07-25T00:35:00.285Z,99968
2022-07-25T00:36:00.333Z,99968
2022-07-25T00:38:00.261Z,99950
2022-07-25T00:39:00.327Z,99950
2022-07-25T00:40:00.290Z,99950
2022-07-25T00:41:01.211Z,99950
2022-07-25T00:42:00.280Z,99950
2022-07-25T00:43:00.287Z,99948
2022-07-25T00:44:00.288Z,99948
2022-07-25T00:45:00.339Z,99948
2022-07-25T00:46:00.749Z,99948
2022-07-25T00:47:00.285Z,99948
2022-07-25T00:48:00.305Z,99941
2022-07-25T00:49:00.421Z,99941
2022-07-25T00:50:00.282Z,99941
2022-07-25T00:51:00.292Z,99941
2022-07-25T00:52:00.359Z,99941
2022-07-25T00:53:00.537Z,99942
2022-07-25T00:54:00.326Z,99942
2022-07-25T00:55:00.378Z,99942
2022-07-25T00:56:00.389Z,99942
2022-07-25T00:57:00.402Z,99942
2022-07-25T00:58:00.287Z,99945
2022-07-25T00:59:00.296Z,99945
2022-07-25T01:00:00.641Z,99945
2022-07-25T01:01:01.460Z,99945
2022-07-25T01:02:00.454Z,99945
2022-07-25T01:03:00.434Z,99935
2022-07-25T01:04:00.514Z,99935
2022-07-25T01:05:00.898Z,99935
2022-07-25T01:06:00.348Z,99935
2022-07-25T01:07:00.863Z,99935
2022-07-25T01:08:00.738Z,99949
2022-07-25T01:09:00.615Z,99949
2022-07-25T01:10:00.419Z,99949
2022-07-25T01:11:00.312Z,99949
2022-07-25T01:12:00.289Z,99949
2022-07-25T01:13:00.564Z,99936
2022-07-25T01:14:00.343Z,99936
2022-07-25T01:15:00.346Z,99936
2022-07-25T01:16:00.418Z,99936
2022-07-25T01:17:00.280Z,99936
2022-07-25T01:18:00.332Z,99929
2022-07-25T01:19:00.329Z,99929
2022-07-25T01:20:00.358Z,99929
2022-07-25T01:21:00.688Z,99929
2022-07-25T01:22:00.263Z,99929
2022-07-25T01:23:00.363Z,99925
2022-07-25T01:24:00.264Z,99925
2022-07-25T01:25:00.277Z,99925
2022-07-25T01:26:00.357Z,99925
2022-07-25T01:27:00.706Z,99925
2022-07-25T01:28:00.277Z,99921
2022-07-25T01:29:00.280Z,99921
2022-07-25T01:30:00.343Z,99921
2022-07-25T01:31:00.357Z,99921
2022-07-25T01:32:00.402Z,99921
2022-07-25T01:33:00.308Z,99917
2022-07-25T01:34:00.266Z,99917
2022-07-25T01:35:00.500Z,99917
2022-07-25T01:36:00.285Z,99917
2022-07-25T01:37:00.355Z,99917
2022-07-25T01:38:00.292Z,99928
2022-07-25T01:39:00.274Z,99928
2022-07-25T01:40:00.394Z,99928
2022-07-25T01:41:00.283Z,99928
2022-07-25T01:42:00.270Z,99928
2022-07-25T01:43:00.267Z,99921
2022-07-25T01:44:00.261Z,99921
2022-07-25T01:45:00.502Z,99921
2022-07-25T01:46:00.448Z,99921
2022-07-25T01:47:00.311Z,99921
2022-07-25T01:48:00.553Z,99922
2022-07-25T01:49:00.437Z,99922
2022-07-25T01:50:00.275Z,99922
2022-07-25T01:51:00.277Z,99922
2022-07-25T01:52:00.311Z,99922
2022-07-25T01:53:00.271Z,99923
2022-07-25T01:54:00.262Z,99923
2022-07-25T01:55:00.276Z,99923
2022-07-25T01:56:00.442Z,99923
2022-07-25T01:57:00.391Z,99923
2022-07-25T01:58:00.293Z,99925
2022-07-25T01:59:00.296Z,99925
2022-07-25T02:00:00.352Z,99925
2022-07-25T02:01:00.334Z,99925
2022-07-25T02:02:00.426Z,99925
2022-07-25T02:03:00.272Z,99934
2022-07-25T02:04:00.266Z,99934
2022-07-25T02:05:00.343Z,99934
2022-07-25T02:06:02.923Z,99934
2022-07-25T02:07:00.537Z,99934
2022-07-25T02:08:00.257Z,99926
2022-07-25T02:09:00.994Z,99926
2022-07-25T02:10:00.347Z,99926
2022-07-25T02:11:00.294Z,99926
2022-07-25T02:12:00.263Z,99926
2022-07-25T02:13:00.290Z,99910
2022-07-25T02:14:00.265Z,99910
2022-07-25T02:15:00.372Z,99910
2022-07-25T02:16:00.284Z,99910
2022-07-25T02:17:00.368Z,99910
2022-07-25T02:18:00.348Z,99916
2022-07-25T02:19:00.356Z,99916
2022-07-25T02:20:00.274Z,99916
2022-07-25T02:21:00.408Z,99916
2022-07-25T02:22:00.298Z,99916
2022-07-25T02:23:00.296Z,99910
2022-07-25T02:24:00.347Z,99910
2022-07-25T02:25:00.314Z,99910
2022-07-25T02:26:00.280Z,99910
2022-07-25T02:27:00.340Z,99910
2022-07-25T02:28:00.482Z,99908
2022-07-25T02:29:00.315Z,99908
2022-07-25T02:30:00.365Z,99908
2022-07-25T02:31:00.352Z,99908
2022-07-25T02:32:00.303Z,99908
2022-07-25T02:33:00.332Z,99908
2022-07-25T02:34:00.322Z,99908
2022-07-25T02:35:00.298Z,99908
2022-07-25T02:36:00.422Z,99908
2022-07-25T02:37:00.303Z,99908
2022-07-25T02:38:00.276Z,99904
2022-07-25T02:39:00.280Z,99904
2022-07-25T02:40:00.395Z,99904
2022-07-25T02:41:00.332Z,99904
2022-07-25T02:42:00.308Z,99904
2022-07-25T02:43:00.308Z,99911
2022-07-25T02:44:00.338Z,99911
2022-07-25T02:45:00.576Z,99911
2022-07-25T02:46:00.389Z,99911
2022-07-25T02:47:00.264Z,99911
2022-07-25T02:48:00.308Z,99906
2022-07-25T02:49:00.953Z,99906
2022-07-25T02:50:00.318Z,99906
2022-07-25T02:51:00.300Z,99906
2022-07-25T02:52:00.338Z,99906
2022-07-25T02:53:00.331Z,99910
2022-07-25T02:54:00.298Z,99910
2022-07-25T02:55:00.254Z,99910
2022-07-25T02:56:00.321Z,99910
2022-07-25T02:57:00.258Z,99910
2022-07-25T02:58:00.271Z,99906
2022-07-25T02:59:00.306Z,99906
2022-07-25T03:00:00.388Z,99906
2022-07-25T03:01:00.337Z,99906
2022-07-25T03:02:00.324Z,99906
2022-07-25T03:03:00.325Z,99906
2022-07-25T03:04:00.406Z,99906
2022-07-25T03:05:00.319Z,99906
2022-07-25T03:06:00.435Z,99906
2022-07-25T03:07:00.266Z,99906
2022-07-25T03:08:00.271Z,99902
2022-07-25T03:09:00.250Z,99902
2022-07-25T03:10:00.521Z,99902
2022-07-25T03:11:00.311Z,99902
2022-07-25T03:12:00.337Z,99902
2022-07-25T03:13:00.427Z,99905
2022-07-25T03:14:00.274Z,99905
2022-07-25T03:15:00.862Z,99905
2022-07-25T03:16:00.306Z,99905
2022-07-25T03:17:00.388Z,99905
2022-07-25T03:18:00.285Z,99894
2022-07-25T03:19:00.252Z,99894
2022-07-25T03:20:00.351Z,99894
2022-07-25T03:21:00.339Z,99894
2022-07-25T03:22:00.269Z,99894
2022-07-25T03:23:00.280Z,99895
2022-07-25T03:24:00.321Z,99895
2022-07-25T03:25:00.288Z,99895
2022-07-25T03:26:00.305Z,99895
2022-07-25T03:27:00.277Z,99895
2022-07-25T03:28:00.321Z,99895
2022-07-25T03:29:00.282Z,99895
2022-07-25T03:30:00.319Z,99895
2022-07-25T03:31:00.472Z,99895
2022-07-25T03:32:00.343Z,99895
2022-07-25T03:33:00.352Z,99886
2022-07-25T03:34:00.260Z,99886
2022-07-25T03:35:00.307Z,99886
2022-07-25T03:36:00.332Z,99886
2022-07-25T03:37:00.725Z,99886
2022-07-25T03:38:00.270Z,99882
2022-07-25T03:39:00.259Z,99882
2022-07-25T03:40:00.261Z,99882
2022-07-25T03:41:00.285Z,99882
2022-07-25T03:42:00.294Z,99882
2022-07-25T03:43:00.270Z,99888
2022-07-25T03:44:00.337Z,99888
2022-07-25T03:45:00.417Z,99888
2022-07-25T03:46:00.424Z,99888
2022-07-25T03:47:00.371Z,99888
2022-07-25T03:48:00.265Z,99884
2022-07-25T03:49:00.392Z,99884
2022-07-25T03:50:00.258Z,99884
2022-07-25T03:51:06.450Z,99884
2022-07-25T03:52:00.318Z,99884
2022-07-25T03:53:00.269Z,99885
2022-07-25T03:54:00.505Z,99885
2022-07-25T03:55:00.300Z,99885
2022-07-25T03:56:00.255Z,99885
2022-07-25T03:57:00.266Z,99885
2022-07-25T03:58:00.287Z,99881
2022-07-25T03:59:00.277Z,99881
2022-07-25T04:00:00.463Z,99881
2022-07-25T04:01:00.332Z,99881
2022-07-25T04:02:00.340Z,99881
2022-07-25T04:03:00.366Z,99872
2022-07-25T04:04:00.830Z,99872
2022-07-25T04:05:00.415Z,99872
2022-07-25T04:06:00.289Z,99872
2022-07-25T04:07:00.282Z,99872
2022-07-25T04:08:00.259Z,99859
2022-07-25T04:09:00.278Z,99859
2022-07-25T04:10:00.348Z,99859
2022-07-25T04:11:00.334Z,99859
2022-07-25T04:12:00.446Z,99859
2022-07-25T04:13:01.338Z,99872
2022-07-25T04:14:00.754Z,99872
2022-07-25T04:15:00.283Z,99872
2022-07-25T04:16:00.264Z,99872
2022-07-25T04:17:00.375Z,99872
2022-07-25T04:18:00.323Z,99863
2022-07-25T04:19:01.067Z,99863
2022-07-25T04:20:00.299Z,99863
2022-07-25T04:21:00.413Z,99863
2022-07-25T04:22:00.302Z,99863
2022-07-25T04:23:00.315Z,99840
2022-07-25T04:24:00.377Z,99840
2022-07-25T04:25:00.371Z,99840
2022-07-25T04:26:00.314Z,99840
2022-07-25T04:27:00.268Z,99840
2022-07-25T04:28:00.301Z,99840
2022-07-25T04:29:00.302Z,99840
2022-07-25T04:30:00.284Z,99840
2022-07-25T04:31:00.388Z,99840
2022-07-25T04:32:00.351Z,99840
2022-07-25T04:33:00.350Z,99852
2022-07-25T04:34:00.272Z,99852
2022-07-25T04:35:00.348Z,99852
2022-07-25T04:36:00.251Z,99852
2022-07-25T04:37:00.273Z,99852
2022-07-25T04:38:00.277Z,99850
2022-07-25T04:39:00.291Z,99850
2022-07-25T04:40:00.327Z,99850
2022-07-25T04:41:00.516Z,99850
2022-07-25T04:42:00.269Z,99850
2022-07-25T04:43:00.280Z,99846
2022-07-25T04:44:00.316Z,99846
2022-07-25T04:45:00.268Z,99846
2022-07-25T04:46:00.349Z,99846
2022-07-25T04:47:00.291Z,99846
2022-07-25T04:48:00.813Z,99849
2022-07-25T04:49:00.361Z,99849
2022-07-25T04:50:00.313Z,99849
2022-07-25T04:51:00.342Z,99849
2022-07-25T04:52:00.272Z,99849
2022-07-25T04:53:00.290Z,99846
2022-07-25T04:54:00.271Z,99846
2022-07-25T04:55:00.335Z,99846
2022-07-25T04:56:00.265Z,99846
2022-07-25T04:57:00.288Z,99846
2022-07-25T04:58:00.258Z,99856
2022-07-25T04:59:04.806Z,99856
2022-07-25T05:00:00.485Z,99856
2022-07-25T05:01:00.365Z,99856
2022-07-25T05:02:00.425Z,99856
2022-07-25T05:03:00.326Z,99850
2022-07-25T05:04:00.268Z,99850
2022-07-25T05:05:02.917Z,99850
2022-07-25T05:06:00.281Z,99850
2022-07-25T05:07:00.292Z,99850
2022-07-25T05:08:00.287Z,99861
2022-07-25T05:09:00.275Z,99861
2022-07-25T05:10:00.300Z,99861
2022-07-25T05:11:00.438Z,99861
2022-07-25T05:12:00.268Z,99861
2022-07-25T05:13:00.272Z,99866
2022-07-25T05:14:00.292Z,99866
2022-07-25T05:15:00.317Z,99866
2022-07-25T05:16:00.731Z,99866
2022-07-25T05:17:00.358Z,99866
2022-07-25T05:18:00.348Z,99873
2022-07-25T05:19:00.272Z,99873
2022-07-25T05:20:00.318Z,99873
2022-07-25T05:21:00.510Z,99873
2022-07-25T05:22:00.324Z,99873
2022-07-25T05:23:00.293Z,99866
2022-07-25T05:24:00.289Z,99866
2022-07-25T05:25:00.297Z,99866
2022-07-25T05:26:00.272Z,99866
2022-07-25T05:27:00.361Z,99866
2022-07-25T05:28:00.290Z,99868
2022-07-25T05:29:00.267Z,99868
2022-07-25T05:30:00.327Z,99868
2022-07-25T05:31:00.286Z,99868
2022-07-25T05:32:00.371Z,99868
2022-07-25T05:33:00.333Z,99882
2022-07-25T05:34:00.284Z,99882
2022-07-25T05:35:00.297Z,99882
2022-07-25T05:36:00.297Z,99882
2022-07-25T05:37:00.274Z,99882
2022-07-25T05:38:00.451Z,99882
2022-07-25T05:39:00.270Z,99882
2022-07-25T05:40:00.392Z,99882
2022-07-25T05:41:00.264Z,99882
2022-07-25T05:42:00.279Z,99882
2022-07-25T05:43:03.208Z,99888
2022-07-25T05:44:00.283Z,99888
2022-07-25T05:45:00.657Z,99888
2022-07-25T05:46:01.087Z,99888
2022-07-25T05:47:00.605Z,99888
2022-07-25T05:48:00.279Z,99892
2022-07-25T05:49:00.443Z,99892
2022-07-25T05:50:00.380Z,99892
2022-07-25T05:51:00.263Z,99892
2022-07-25T05:52:00.266Z,99892
2022-07-25T05:53:00.270Z,99897
2022-07-25T05:54:00.253Z,99897
2022-07-25T05:55:00.299Z,99897
2022-07-25T05:56:00.323Z,99897
2022-07-25T05:57:00.579Z,99897
2022-07-25T05:58:00.266Z,99884
2022-07-25T05:59:00.261Z,99884
2022-07-25T06:00:00.534Z,99884
2022-07-25T06:01:00.271Z,99884
2022-07-25T06:02:01.028Z,99884
2022-07-25T06:03:00.581Z,99889
2022-07-25T06:04:00.323Z,99889
2022-07-25T06:05:00.265Z,99889
2022-07-25T06:06:00.291Z,99889
2022-07-25T06:07:00.369Z,99889
2022-07-25T06:08:00.294Z,99883
2022-07-25T06:09:00.290Z,99883
2022-07-25T06:10:00.272Z,99883
2022-07-25T06:11:00.539Z,99883
2022-07-25T06:12:01.350Z,99883
2022-07-25T06:13:00.280Z,99887
2022-07-25T06:14:00.272Z,99887
2022-07-25T06:15:00.268Z,99887
2022-07-25T06:16:00.356Z,99887
2022-07-25T06:17:00.296Z,99887
2022-07-25T06:18:00.287Z,99906
2022-07-25T06:19:00.287Z,99906
2022-07-25T06:20:00.355Z,99906
2022-07-25T06:21:00.257Z,99906
2022-07-25T06:22:00.345Z,99906
2022-07-25T06:23:00.269Z,99905
2022-07-25T06:24:00.321Z,99905
2022-07-25T06:25:01.053Z,99905
2022-07-25T06:26:00.252Z,99905
2022-07-25T06:27:00.248Z,99905
2022-07-25T06:28:00.282Z,99899
2022-07-25T06:29:00.277Z,99899
2022-07-25T06:30:02.117Z,99899
2022-07-25T06:31:00.318Z,99899
2022-07-25T06:32:00.403Z,99899
2022-07-25T06:33:00.438Z,99891
2022-07-25T06:34:00.274Z,99891
2022-07-25T06:35:00.453Z,99891
2022-07-25T06:36:00.295Z,99891
2022-07-25T06:37:00.272Z,99891
2022-07-25T06:38:00.393Z,99909
2022-07-25T06:39:00.341Z,99909
2022-07-25T06:40:00.328Z,99909
2022-07-25T06:41:00.266Z,99909
2022-07-25T06:42:00.281Z,99909
2022-07-25T06:43:00.274Z,99914
2022-07-25T06:44:00.248Z,99914
2022-07-25T06:45:02.806Z,99914
2022-07-25T06:46:00.275Z,99914
2022-07-25T06:47:00.583Z,99914
2022-07-25T06:48:00.590Z,99915
2022-07-25T06:49:00.305Z,99915
2022-07-25T06:50:00.375Z,99915
2022-07-25T06:51:00.320Z,99915
2022-07-25T06:52:00.277Z,99915
2022-07-25T06:53:00.281Z,99918
2022-07-25T06:54:00.294Z,99918
2022-07-25T06:55:00.806Z,99918
2022-07-25T06:56:00.283Z,99918
2022-07-25T06:57:00.292Z,99918
2022-07-25T06:58:00.374Z,99915
2022-07-25T06:59:00.261Z,99915
2022-07-25T07:00:00.648Z,99915
2022-07-25T07:01:00.405Z,99915
2022-07-25T07:02:00.288Z,99915
2022-07-25T07:03:01.506Z,99922
2022-07-25T07:04:00.458Z,99922
2022-07-25T07:05:00.327Z,99922
2022-07-25T07:06:00.255Z,99922
2022-07-25T07:07:00.285Z,99922
2022-07-25T07:08:00.469Z,99922
2022-07-25T07:09:00.340Z,99922
2022-07-25T07:10:00.277Z,99922
2022-07-25T07:11:00.376Z,99922
2022-07-25T07:12:00.372Z,99922
2022-07-25T07:13:04.497Z,99927
2022-07-25T07:14:00.785Z,99927
2022-07-25T07:15:00.284Z,99927
2022-07-25T07:16:00.351Z,99927
2022-07-25T07:17:00.303Z,99927
2022-07-25T07:18:00.414Z,99923
2022-07-25T07:19:00.276Z,99923
2022-07-25T07:20:00.456Z,99923
2022-07-25T07:21:00.307Z,99923
2022-07-25T07:22:00.290Z,99923
2022-07-25T07:23:00.345Z,99911
2022-07-25T07:24:00.257Z,99911
2022-07-25T07:25:00.304Z,99911
2022-07-25T07:26:00.269Z,99911
2022-07-25T07:27:00.289Z,99911
2022-07-25T07:28:00.620Z,99912
2022-07-25T07:29:00.457Z,99912
2022-07-25T07:30:00.299Z,99912
2022-07-25T07:31:16.193Z,99912
2022-07-25T07:32:00.372Z,99912
2022-07-25T07:33:00.318Z,99916
2022-07-25T07:34:00.357Z,99916
2022-07-25T07:35:00.298Z,99916
2022-07-25T07:36:00.853Z,99916
2022-07-25T07:37:00.261Z,99916
2022-07-25T07:38:00.313Z,99915
2022-07-25T07:39:00.264Z,99915
2022-07-25T07:40:00.319Z,99915
2022-07-25T07:41:00.279Z,99915
2022-07-25T07:42:00.308Z,99915
2022-07-25T07:43:00.350Z,99910
2022-07-25T07:44:00.269Z,99910
2022-07-25T07:45:00.263Z,99910
2022-07-25T07:46:00.528Z,99910
2022-07-25T07:47:00.358Z,99910
2022-07-25T07:48:00.282Z,99927
2022-07-25T07:49:00.370Z,99927
2022-07-25T07:50:00.285Z,99927
2022-07-25T07:51:00.596Z,99927
2022-07-25T07:52:00.263Z,99927
2022-07-25T07:53:00.325Z,99930
2022-07-25T07:54:00.269Z,99930
2022-07-25T07:55:00.273Z,99930
2022-07-25T07:56:00.258Z,99930
2022-07-25T07:57:00.268Z,99930
2022-07-25T07:58:00.508Z,99933
2022-07-25T07:59:00.279Z,99933
2022-07-25T08:00:00.388Z,99933
2022-07-25T08:01:00.266Z,99933
2022-07-25T08:02:00.391Z,99933
2022-07-25T08:03:01.066Z,99939
2022-07-25T08:04:00.315Z,99939
2022-07-25T08:05:00.288Z,99939
2022-07-25T08:06:00.508Z,99939
2022-07-25T08:07:00.275Z,99939
2022-07-25T08:08:00.464Z,99938
2022-07-25T08:09:00.246Z,99938
2022-07-25T08:10:00.272Z,99938
2022-07-25T08:11:00.319Z,99938
2022-07-25T08:12:00.274Z,99938
2022-07-25T08:13:00.447Z,99944
2022-07-25T08:14:00.334Z,99944
2022-07-25T08:15:00.268Z,99944
2022-07-25T08:16:01.098Z,99944
2022-07-25T08:17:00.281Z,99944
2022-07-25T08:18:00.264Z,99942
2022-07-25T08:19:00.255Z,99942
2022-07-25T08:20:14.712Z,99942
2022-07-25T08:21:00.916Z,99942
2022-07-25T08:22:00.255Z,99942
2022-07-25T08:23:00.274Z,99942
2022-07-25T08:24:00.287Z,99942
2022-07-25T08:25:00.277Z,99942
2022-07-25T08:26:00.435Z,99942
2022-07-25T08:27:00.281Z,99942
2022-07-25T08:28:00.293Z,99932
2022-07-25T08:29:18.313Z,99932
2022-07-25T08:30:00.274Z,99932
2022-07-25T08:31:00.413Z,99932
2022-07-25T08:32:00.276Z,99932
2022-07-25T08:33:01.132Z,99936
2022-07-25T08:34:00.252Z,99936
2022-07-25T08:35:00.416Z,99936
2022-07-25T08:36:00.416Z,99936
2022-07-25T08:37:00.268Z,99936
2022-07-25T08:38:01.466Z,99949
2022-07-25T08:39:00.284Z,99949
2022-07-25T08:40:00.266Z,99949
2022-07-25T08:41:01.374Z,99949
2022-07-25T08:42:01.876Z,99949
2022-07-25T08:43:00.268Z,99942
2022-07-25T08:44:01.634Z,99942
2022-07-25T08:45:03.111Z,99942
2022-07-25T08:46:00.892Z,99942
2022-07-25T08:47:00.861Z,99942
2022-07-25T08:48:00.325Z,99930
2022-07-25T08:49:01.125Z,99930
2022-07-25T08:50:04.354Z,99930
2022-07-25T08:51:01.420Z,99930
2022-07-25T08:52:01.393Z,99930
2022-07-25T08:53:30.168Z,99943
2022-07-25T08:54:01.112Z,99943
2022-07-25T08:55:01.701Z,99943
2022-07-25T08:56:00.567Z,99943
2022-07-25T08:57:00.353Z,99943
2022-07-25T08:58:00.292Z,99938
2022-07-25T08:59:00.330Z,99938
2022-07-25T09:00:00.849Z,99938
2022-07-25T09:01:00.292Z,99938
2022-07-25T09:02:00.395Z,99938
2022-07-25T09:03:01.540Z,99947
2022-07-25T09:04:00.830Z,99947
2022-07-25T09:05:00.343Z,99947
2022-07-25T09:06:00.299Z,99947
2022-07-25T09:07:02.930Z,99947
2022-07-25T09:08:10.195Z,99957
2022-07-25T09:09:00.708Z,99957
2022-07-25T09:10:10.205Z,99957
2022-07-25T09:11:00.269Z,99957
2022-07-25T09:12:00.447Z,99957
2022-07-25T09:13:05.851Z,99966
2022-07-25T09:14:01.426Z,99966
2022-07-25T09:15:00.294Z,99966
2022-07-25T09:16:00.527Z,99966
2022-07-25T09:17:04.996Z,99966
2022-07-25T09:18:01.845Z,99972
2022-07-25T09:19:07.582Z,99972
2022-07-25T09:20:00.653Z,99972
2022-07-25T09:21:00.368Z,99972
2022-07-25T09:22:02.502Z,99972
2022-07-25T09:23:00.292Z,99971
2022-07-25T09:24:10.309Z,99971
2022-07-25T09:25:00.262Z,99971
2022-07-25T09:26:04.558Z,99971
2022-07-25T09:27:01.228Z,99971
2022-07-25T09:28:10.180Z,99986
2022-07-25T09:29:00.275Z,99986
2022-07-25T09:30:00.302Z,99986
2022-07-25T09:31:00.674Z,99986
2022-07-25T09:32:01.072Z,99986
2022-07-25T09:33:00.684Z,99992
2022-07-25T09:34:00.271Z,99992
2022-07-25T09:35:00.274Z,99992
2022-07-25T09:36:08.759Z,99992
2022-07-25T09:37:00.964Z,99992
2022-07-25T09:38:10.184Z,99982
2022-07-25T09:39:00.927Z,99982
2022-07-25T09:40:00.292Z,99982
2022-07-25T09:41:01.131Z,99982
2022-07-25T09:42:00.303Z,99982
2022-07-25T09:43:00.335Z,99984
2022-07-25T09:44:00.339Z,99984
2022-07-25T09:45:00.239Z,99984
2022-07-25T09:46:00.391Z,99984
2022-07-25T09:47:09.177Z,99984
2022-07-25T09:48:01.816Z,99984
2022-07-25T09:49:00.517Z,99984
2022-07-25T09:50:00.565Z,99984
2022-07-25T09:51:00.264Z,99984
2022-07-25T09:52:00.430Z,99984
2022-07-25T09:53:01.204Z,99994
2022-07-25T09:54:02.994Z,99994
2022-07-25T09:55:01.239Z,99994
2022-07-25T09:56:00.604Z,99994
2022-07-25T09:57:00.367Z,99994
2022-07-25T09:58:00.354Z,99993
2022-07-25T09:59:01.074Z,99993
2022-07-25T10:00:00.573Z,99993
2022-07-25T10:01:02.174Z,99993
2022-07-25T10:02:07.060Z,99993
2022-07-25T10:03:00.295Z,99995
2022-07-25T10:04:00.300Z,99995
2022-07-25T10:05:03.561Z,99995
2022-07-25T10:06:03.546Z,99995
2022-07-25T10:07:07.486Z,99995
2022-07-25T10:08:04.514Z,99997
2022-07-25T10:09:00.460Z,99997
2022-07-25T10:10:00.298Z,99997
2022-07-25T10:11:00.326Z,99997
2022-07-25T10:12:02.708Z,99997
2022-07-25T10:13:06.515Z,100002
2022-07-25T10:14:08.320Z,100002
2022-07-25T10:15:03.718Z,100002
2022-07-25T10:16:00.642Z,100002
2022-07-25T10:17:00.749Z,100002
2022-07-25T10:18:02.262Z,100009
2022-07-25T10:19:00.265Z,100009
2022-07-25T10:20:00.331Z,100009
2022-07-25T10:21:24.430Z,100009
2022-07-25T10:22:00.312Z,100009
2022-07-25T10:23:00.357Z,100027
2022-07-25T10:24:02.677Z,100027
2022-07-25T10:25:06.401Z,100027
2022-07-25T10:26:03.279Z,100027
2022-07-25T10:27:06.538Z,100027
2022-07-25T10:28:06.478Z,100028
2022-07-25T10:29:00.301Z,100028
2022-07-25T10:30:00.257Z,100028
2022-07-25T10:31:00.449Z,100028
2022-07-25T10:32:08.883Z,100028
2022-07-25T10:33:02.206Z,100028
2022-07-25T10:34:05.062Z,100028
2022-07-25T10:35:10.220Z,100028
2022-07-25T10:36:07.668Z,100028
2022-07-25T10:37:10.188Z,100028
2022-07-25T10:38:02.300Z,100030
2022-07-25T10:39:00.431Z,100030
2022-07-25T10:40:00.297Z,100030
2022-07-25T10:41:00.450Z,100030
2022-07-25T10:42:00.311Z,100030
2022-07-25T10:43:02.052Z,100038
2022-07-25T10:44:00.533Z,100038
2022-07-25T10:45:00.943Z,100038
2022-07-25T10:46:00.323Z,100038
2022-07-25T10:47:10.189Z,100038
2022-07-25T10:48:05.255Z,100033
2022-07-25T10:49:02.432Z,100033
2022-07-25T10:50:16.662Z,100033
2022-07-25T10:51:01.450Z,100033
2022-07-25T10:52:01.364Z,100033
2022-07-25T10:53:00.317Z,100042
2022-07-25T10:54:10.186Z,100042
2022-07-25T10:55:00.335Z,100042
2022-07-25T10:56:06.036Z,100042
2022-07-25T10:57:00.480Z,100042
2022-07-25T10:58:16.168Z,100043
2022-07-25T10:59:00.575Z,100043
2022-07-25T11:00:04.414Z,100043
2022-07-25T11:01:00.370Z,100043
2022-07-25T11:02:01.122Z,100043
2022-07-25T11:03:00.505Z,100035
2022-07-25T11:04:02.722Z,100035
2022-07-25T11:05:01.534Z,100035
2022-07-25T11:06:00.425Z,100035
2022-07-25T11:07:08.268Z,100035
2022-07-25T11:08:20.521Z,100039
2022-07-25T11:09:00.662Z,100039
2022-07-25T11:10:02.145Z,100039
2022-07-25T11:11:01.053Z,100039
2022-07-25T11:12:00.245Z,100039
2022-07-25T11:13:00.361Z,100043
2022-07-25T11:14:00.317Z,100043
2022-07-25T11:15:01.634Z,100043
2022-07-25T11:16:00.279Z,100043
2022-07-25T11:17:10.284Z,100043
2022-07-25T11:18:00.263Z,100045
2022-07-25T11:19:00.391Z,100045
2022-07-25T11:20:03.601Z,100045
2022-07-25T11:21:04.324Z,100045
2022-07-25T11:22:00.838Z,100045
2022-07-25T11:23:00.468Z,100054
2022-07-25T11:24:00.273Z,100054
2022-07-25T11:25:01.114Z,100054
2022-07-25T11:26:04.238Z,100054
2022-07-25T11:27:00.407Z,100054
2022-07-25T11:28:00.315Z,100053
2022-07-25T11:29:00.381Z,100053
2022-07-25T11:30:10.219Z,100053
2022-07-25T11:31:03.788Z,100053
2022-07-25T11:32:02.190Z,100053
2022-07-25T11:33:00.292Z,100049
2022-07-25T11:34:00.313Z,100049
2022-07-25T11:35:00.454Z,100049
2022-07-25T11:36:00.780Z,100049
2022-07-25T11:37:01.307Z,100049
2022-07-25T11:38:00.818Z,100060
2022-07-25T11:39:00.375Z,100060
2022-07-25T11:40:00.460Z,100060
2022-07-25T11:41:00.444Z,100060
2022-07-25T11:42:02.810Z,100060
2022-07-25T11:43:00.305Z,100055
2022-07-25T11:44:00.271Z,100055
2022-07-25T11:45:00.377Z,100055
2022-07-25T11:46:01.824Z,100055
2022-07-25T11:47:00.871Z,100055
2022-07-25T11:48:08.472Z,100060
2022-07-25T11:49:04.016Z,100060
2022-07-25T11:50:01.612Z,100060
2022-07-25T11:51:12.542Z,100060
2022-07-25T11:52:00.267Z,100060
2022-07-25T11:53:01.293Z,100067
2022-07-25T11:54:06.115Z,100067
2022-07-25T11:55:02.141Z,100067
2022-07-25T11:56:32.060Z,100067
2022-07-25T11:57:00.288Z,100067
2022-07-25T11:58:01.053Z,100073
2022-07-25T11:59:00.311Z,100073
2022-07-25T12:00:01.157Z,100073
2022-07-25T12:01:00.315Z,100073
2022-07-25T12:02:00.340Z,100073
2022-07-25T12:03:14.136Z,100073
2022-07-25T12:04:10.189Z,100073
2022-07-25T12:05:01.386Z,100073
2022-07-25T12:06:06.081Z,100073
2022-07-25T12:07:03.119Z,100073
2022-07-25T12:08:07.721Z,100072
2022-07-25T12:09:09.414Z,100072
2022-07-25T12:10:00.352Z,100072
2022-07-25T12:11:00.320Z,100072
2022-07-25T12:12:02.142Z,100072
2022-07-25T12:13:00.373Z,100072
2022-07-25T12:14:02.463Z,100072
2022-07-25T12:15:00.273Z,100072
2022-07-25T12:16:00.329Z,100072
2022-07-25T12:17:00.313Z,100072
2022-07-25T12:18:00.808Z,100071
2022-07-25T12:19:00.376Z,100071
2022-07-25T12:20:00.294Z,100071
2022-07-25T12:21:00.261Z,100071
2022-07-25T12:22:00.297Z,100071
2022-07-25T12:23:02.145Z,100079
2022-07-25T12:24:00.287Z,100079
2022-07-25T12:25:00.269Z,100079
2022-07-25T12:26:00.306Z,100079
2022-07-25T12:27:00.257Z,100079
2022-07-25T12:28:00.275Z,100071
2022-07-25T12:29:00.269Z,100071
2022-07-25T12:30:00.274Z,100071
2022-07-25T12:31:00.369Z,100071
2022-07-25T12:32:00.266Z,100071
2022-07-25T12:33:00.414Z,100075
2022-07-25T12:34:00.289Z,100075
2022-07-25T12:35:00.344Z,100075
2022-07-25T12:36:04.022Z,100075
2022-07-25T12:37:00.301Z,100075
2022-07-25T12:38:00.332Z,100082
2022-07-25T12:39:00.804Z,100082
2022-07-25T12:40:00.320Z,100082
2022-07-25T12:41:00.257Z,100082
2022-07-25T12:42:00.272Z,100082
2022-07-25T12:43:00.364Z,100073
2022-07-25T12:44:00.276Z,100073
2022-07-25T12:45:00.301Z,100073
2022-07-25T12:46:00.382Z,100073
2022-07-25T12:47:00.669Z,100073
2022-07-25T12:48:00.391Z,100081